createdAt,value
2022-10-07T00:03:36.809Z,10.65
2022-10-07T00:09:01.663Z,10.48
2022-10-07T00:14:25.238Z,10.30
2022-10-07T00:19:50.197Z,8.70
2022-10-07T00:25:14.168Z,8.73
2022-10-07T00:30:37.743Z,8.45
2022-10-07T00:36:02.954Z,9.15
2022-10-07T00:41:28.742Z,9.90
2022-10-07T00:46:55.383Z,9.63
2022-10-07T00:52:23.727Z,8.55
2022-10-07T00:57:49.707Z,8.68
2022-10-07T01:03:13.320Z,7.97
2022-10-07T01:08:38.338Z,7.55
2022-10-07T01:14:10.249Z,8.18
2022-10-07T01:20:03.542Z,8.05
2022-10-07T01:25:41.298Z,8.20
2022-10-07T01:31:11.468Z,7.53
2022-10-07T01:36:37.197Z,6.75
2022-10-07T01:42:01.443Z,7.70
2022-10-07T01:47:28.146Z,7.57
2022-10-07T01:53:12.953Z,6.93
2022-10-07T01:58:54.111Z,7.32
2022-10-07T02:10:02.183Z,6.47
2022-10-07T02:15:30.648Z,7.55
2022-10-07T02:20:56.926Z,7.80
2022-10-07T02:26:23.564Z,8.13
2022-10-07T02:31:48.462Z,7.32
2022-10-07T02:37:19.263Z,8.55
2022-10-07T02:42:54.218Z,8.38
2022-10-07T02:48:23.012Z,10.52
2022-10-07T02:53:50.882Z,10.32
2022-10-07T02:59:16.742Z,10.98
2022-10-07T03:04:40.988Z,9.63
2022-10-07T03:10:10.163Z,10.70
2022-10-07T03:15:41.816Z,9.73
2022-10-07T03:21:08.677Z,9.57
2022-10-07T03:26:35.409Z,10.55
2022-10-07T03:31:59.974Z,8.93
2022-10-07T03:37:24.206Z,9.13
2022-10-07T03:42:50.064Z,8.07
2022-10-07T03:48:13.768Z,7.25
2022-10-07T03:53:40.299Z,8.52
2022-10-07T03:59:05.762Z,9.77
2022-10-07T04:04:29.824Z,9.65
2022-10-07T04:09:53.847Z,7.85
2022-10-07T04:15:19.510Z,8.18
2022-10-07T04:20:43.549Z,7.88
2022-10-07T04:26:10.298Z,8.25
2022-10-07T04:31:38.214Z,7.97
2022-10-07T04:37:02.650Z,8.93
2022-10-07T04:42:44.345Z,10.35
2022-10-07T04:48:09.357Z,12.45
2022-10-07T04:53:35.380Z,12.23
2022-10-07T04:58:59.954Z,10.48
2022-10-07T05:04:25.380Z,10.18
2022-10-07T05:09:51.006Z,9.80
2022-10-07T05:15:15.623Z,10.85
2022-10-07T05:20:43.292Z,11.25
2022-10-07T05:26:09.152Z,10.18
2022-10-07T05:31:34.127Z,10.43
2022-10-07T05:37:01.306Z,10.05
2022-10-07T05:42:25.054Z,11.35
2022-10-07T05:47:52.575Z,13.60
2022-10-07T05:53:17.685Z,14.43
2022-10-07T05:58:41.419Z,15.73
2022-10-07T06:04:08.001Z,15.50
2022-10-07T06:09:52.889Z,15.20
2022-10-07T06:15:16.752Z,16.35
2022-10-07T06:20:43.987Z,16.33
2022-10-07T06:26:11.271Z,16.15
2022-10-07T06:31:35.493Z,15.18
2022-10-07T06:37:01.146Z,16.83
2022-10-07T06:42:26.368Z,17.27
2022-10-07T06:48:15.480Z,15.00
2022-10-07T06:53:39.195Z,17.27
2022-10-07T06:59:04.334Z,15.48
2022-10-07T07:04:36.038Z,15.77
2022-10-07T07:09:59.726Z,14.98
2022-10-07T07:15:25.437Z,15.68
2022-10-07T07:20:49.249Z,13.88
2022-10-07T07:26:13.171Z,12.18
2022-10-07T07:31:38.398Z,12.75
2022-10-07T07:37:02.304Z,10.65
2022-10-07T07:42:32.300Z,11.63
2022-10-07T07:47:58.249Z,9.25
2022-10-07T07:53:22.862Z,8.10
2022-10-07T07:58:48.028Z,8.07
2022-10-07T08:04:15.285Z,8.10
2022-10-07T08:09:39.070Z,7.22
2022-10-07T08:15:03.339Z,7.15
2022-10-07T08:20:28.450Z,5.35
2022-10-07T08:25:54.736Z,5.35
2022-10-07T08:31:20.803Z,4.72
2022-10-07T08:36:47.580Z,5.68
2022-10-07T08:42:17.948Z,6.22
2022-10-07T08:47:44.983Z,6.07
2022-10-07T08:53:20.576Z,6.30
2022-10-07T08:59:00.130Z,5.55
2022-10-07T09:04:34.726Z,5.80
2022-10-07T09:10:05.331Z,5.72
2022-10-07T09:15:39.113Z,6.57
2022-10-07T09:21:08.540Z,6.00
2022-10-07T09:26:33.471Z,5.82
2022-10-07T09:31:58.193Z,6.55
2022-10-07T09:37:23.549Z,7.15
2022-10-07T09:42:49.708Z,5.97
2022-10-07T09:48:21.591Z,7.43
2022-10-07T09:53:59.139Z,6.90
2022-10-07T09:59:25.640Z,5.82
2022-10-07T10:04:52.519Z,6.18
2022-10-07T10:10:19.365Z,6.05
2022-10-07T10:15:45.094Z,5.63
2022-10-07T10:21:19.894Z,5.03
2022-10-07T10:27:03.201Z,4.93
2022-10-07T10:33:08.829Z,3.70
2022-10-07T10:38:40.973Z,4.50
2022-10-07T10:44:52.076Z,4.35
2022-10-07T10:50:25.435Z,4.10
2022-10-07T10:56:06.453Z,4.00
2022-10-07T11:01:36.431Z,3.88
2022-10-07T11:07:06.283Z,3.70
2022-10-07T11:12:32.371Z,4.00
2022-10-07T11:18:00.743Z,3.85
2022-10-07T11:23:34.348Z,3.40
2022-10-07T11:29:00.941Z,3.72
2022-10-07T11:34:31.043Z,3.25
2022-10-07T11:39:56.446Z,3.45
2022-10-07T11:45:24.946Z,3.58
2022-10-07T11:50:53.131Z,3.53
2022-10-07T11:56:22.202Z,3.38
2022-10-07T12:01:55.225Z,3.67
2022-10-07T12:07:40.238Z,3.10
2022-10-07T12:13:39.267Z,3.17
2022-10-07T12:19:23.791Z,2.63
2022-10-07T12:25:26.281Z,3.50
2022-10-07T12:30:52.714Z,3.10
2022-10-07T12:36:27.731Z,3.70
2022-10-07T12:41:52.951Z,3.13
2022-10-07T12:47:24.361Z,3.30
2022-10-07T12:52:52.921Z,3.03
2022-10-07T12:59:05.078Z,3.55
2022-10-07T13:04:46.883Z,3.20
2022-10-07T13:10:37.055Z,3.00
2022-10-07T13:16:09.454Z,3.42
2022-10-07T13:21:37.890Z,2.83
2022-10-07T13:27:02.876Z,3.28
2022-10-07T13:32:29.819Z,3.13
2022-10-07T13:37:53.426Z,3.80
2022-10-07T13:43:18.422Z,3.40
2022-10-07T13:48:46.057Z,3.45
2022-10-07T13:54:19.455Z,2.58
2022-10-07T13:59:44.573Z,3.15
2022-10-07T14:05:21.158Z,3.03
2022-10-07T14:10:54.416Z,3.30
2022-10-07T14:16:22.311Z,2.92
2022-10-07T14:21:46.236Z,2.67
2022-10-07T14:27:48.472Z,2.50
2022-10-07T14:33:30.232Z,2.72
2022-10-07T14:38:58.184Z,2.63
2022-10-07T14:44:22.032Z,2.85
2022-10-07T14:49:46.992Z,2.92
2022-10-07T14:55:15.705Z,2.83
2022-10-07T15:00:39.892Z,3.00
2022-10-07T15:06:06.533Z,3.50
2022-10-07T15:11:30.242Z,3.50
2022-10-07T15:16:53.873Z,3.15
2022-10-07T15:22:19.005Z,3.20
2022-10-07T15:27:42.849Z,3.70
2022-10-07T15:33:06.466Z,4.10
2022-10-07T15:38:32.559Z,4.13
2022-10-07T15:43:58.094Z,4.80
2022-10-07T15:49:22.151Z,4.93
2022-10-07T15:54:47.329Z,6.03
2022-10-07T16:00:12.197Z,5.78
2022-10-07T16:05:36.163Z,6.25
2022-10-07T16:11:03.827Z,5.72
2022-10-07T16:16:28.885Z,6.07
2022-10-07T16:21:52.530Z,5.25
2022-10-07T16:27:17.580Z,5.30
2022-10-07T16:32:41.209Z,5.90
2022-10-07T16:38:05.417Z,5.15
2022-10-07T16:43:30.656Z,5.20
2022-10-07T16:48:54.347Z,5.18
2022-10-07T16:54:19.378Z,5.07
2022-10-07T16:59:44.448Z,5.40
2022-10-07T17:05:10.964Z,5.80
2022-10-07T17:10:36.218Z,6.43
2022-10-07T17:16:01.800Z,6.22
2022-10-07T17:21:25.596Z,6.78
2022-10-07T17:26:50.230Z,7.22
2022-10-07T17:32:15.537Z,6.95
2022-10-07T17:37:39.206Z,7.10
2022-10-07T17:43:04.458Z,7.40
2022-10-07T17:48:29.428Z,8.27
2022-10-07T17:53:53.108Z,7.90
2022-10-07T17:59:16.875Z,7.82
2022-10-07T18:04:41.961Z,8.30
2022-10-07T18:10:06.011Z,9.48
2022-10-07T18:15:29.665Z,7.30
2022-10-07T18:20:54.678Z,7.72
2022-10-07T18:26:18.862Z,8.93
2022-10-07T18:31:42.549Z,9.02
2022-10-07T18:37:07.609Z,9.20
2022-10-07T18:42:31.210Z,10.82
2022-10-07T18:47:54.816Z,10.10
2022-10-07T18:53:38.121Z,10.38
2022-10-07T18:59:01.696Z,10.38
2022-10-07T19:04:27.386Z,11.23
2022-10-07T19:09:52.437Z,11.18
2022-10-07T19:15:16.137Z,11.60
2022-10-07T19:20:42.406Z,10.25
2022-10-07T19:26:08.430Z,12.27
2022-10-07T19:31:35.267Z,13.75
2022-10-07T19:36:59.383Z,13.38
2022-10-07T19:42:24.393Z,13.45
2022-10-07T19:47:49.146Z,14.10
2022-10-07T19:53:13.119Z,12.68
2022-10-07T19:58:39.025Z,14.75
2022-10-07T20:04:06.115Z,15.55
2022-10-07T20:09:29.811Z,13.80
2022-10-07T20:14:54.810Z,13.23
2022-10-07T20:20:21.192Z,14.93
2022-10-07T20:25:46.466Z,13.18
2022-10-07T20:31:13.574Z,11.68
2022-10-07T20:36:38.848Z,12.27
2022-10-07T20:42:20.481Z,12.00
2022-10-07T20:47:46.225Z,9.57
2022-10-07T20:53:09.957Z,7.97
2022-10-07T20:58:33.660Z,8.88
2022-10-07T21:03:58.963Z,9.38
2022-10-07T21:09:22.628Z,9.18
2022-10-07T21:14:48.519Z,8.75
2022-10-07T21:20:13.655Z,9.00
2022-10-07T21:25:37.239Z,8.07
2022-10-07T21:31:02.830Z,9.60
2022-10-07T21:36:27.832Z,10.40
2022-10-07T21:41:51.503Z,10.50
2022-10-07T21:47:15.088Z,9.15
2022-10-07T21:52:40.038Z,8.77
2022-10-07T21:58:03.630Z,9.48
2022-10-07T22:03:27.213Z,9.18
2022-10-07T22:08:56.233Z,9.32
2022-10-07T22:14:44.590Z,9.07
2022-10-07T22:20:09.554Z,10.15
2022-10-07T22:25:35.127Z,8.70
2022-10-07T22:30:59.058Z,8.65
2022-10-07T22:36:23.124Z,8.68
2022-10-07T22:41:48.078Z,9.82
2022-10-07T22:47:11.732Z,9.02
2022-10-07T22:52:36.280Z,9.45
2022-10-07T22:58:02.098Z,9.32
2022-10-07T23:03:28.355Z,9.90
2022-10-07T23:08:52.109Z,8.63
2022-10-07T23:14:17.960Z,10.48
2022-10-07T23:19:42.063Z,10.85
2022-10-07T23:25:06.410Z,10.70
2022-10-07T23:30:31.421Z,9.57
2022-10-07T23:35:57.129Z,9.30
2022-10-07T23:41:22.350Z,8.15
2022-10-07T23:46:47.331Z,9.20
2022-10-07T23:52:10.899Z,9.40
2022-10-07T23:57:34.439Z,9.20
